sensor_id;sensor_type;location;lat;lon;timestamp;P1;durP1;ratioP1;P2;durP2;ratioP2
52878;SDS011;38747;53.140;6.498;2022-11-18T00:02:04;21.10;;;12.45;;
52878;SDS011;38747;53.140;6.498;2022-11-18T00:04:29;20.03;;;12.17;;
52878;SDS011;38747;53.140;6.498;2022-11-18T00:06:55;19.88;;;12.07;;
52878;SDS011;38747;53.140;6.498;2022-11-18T00:09:21;20.37;;;12.03;;
52878;SDS011;38747;53.140;6.498;2022-11-18T00:11:47;22.30;;;13.33;;
52878;SDS011;38747;53.140;6.498;2022-11-18T00:14:31;20.33;;;12.18;;
52878;SDS011;38747;53.140;6.498;2022-11-18T00:16:58;24.08;;;12.50;;
52878;SDS011;38747;53.140;6.498;2022-11-18T00:19:32;23.27;;;13.17;;
52878;SDS011;38747;53.140;6.498;2022-11-18T00:21:59;20.77;;;11.70;;
52878;SDS011;38747;53.140;6.498;2022-11-18T00:24:26;22.30;;;12.95;;
52878;SDS011;38747;53.140;6.498;2022-11-18T00:26:52;20.02;;;11.85;;
52878;SDS011;38747;53.140;6.498;2022-11-18T00:29:19;22.95;;;12.52;;
52878;SDS011;38747;53.140;6.498;2022-11-18T00:31:45;21.23;;;12.73;;
52878;SDS011;38747;53.140;6.498;2022-11-18T00:34:11;21.15;;;12.98;;
52878;SDS011;38747;53.140;6.498;2022-11-18T00:36:39;21.80;;;12.82;;
52878;SDS011;38747;53.140;6.498;2022-11-18T00:39:06;21.58;;;13.05;;
52878;SDS011;38747;53.140;6.498;2022-11-18T00:41:32;23.13;;;13.05;;
52878;SDS011;38747;53.140;6.498;2022-11-18T00:44:16;23.37;;;13.07;;
52878;SDS011;38747;53.140;6.498;2022-11-18T00:46:42;21.23;;;13.02;;
52878;SDS011;38747;53.140;6.498;2022-11-18T00:49:08;21.33;;;12.73;;
52878;SDS011;38747;53.140;6.498;2022-11-18T00:51:34;24.60;;;12.65;;
52878;SDS011;38747;53.140;6.498;2022-11-18T00:53:59;23.40;;;12.90;;
52878;SDS011;38747;53.140;6.498;2022-11-18T00:56:25;22.30;;;12.80;;
52878;SDS011;38747;53.140;6.498;2022-11-18T00:58:51;20.50;;;12.50;;
52878;SDS011;38747;53.140;6.498;2022-11-18T01:01:16;22.60;;;12.82;;
52878;SDS011;38747;53.140;6.498;2022-11-18T01:03:42;23.87;;;12.90;;
52878;SDS011;38747;53.140;6.498;2022-11-18T01:06:07;23.47;;;12.67;;
52878;SDS011;38747;53.140;6.498;2022-11-18T01:08:33;24.50;;;13.30;;
52878;SDS011;38747;53.140;6.498;2022-11-18T01:10:59;24.58;;;13.00;;
52878;SDS011;38747;53.140;6.498;2022-11-18T01:13:44;23.40;;;12.60;;
52878;SDS011;38747;53.140;6.498;2022-11-18T01:16:16;25.48;;;13.02;;
52878;SDS011;38747;53.140;6.498;2022-11-18T01:18:52;23.85;;;12.68;;
52878;SDS011;38747;53.140;6.498;2022-11-18T01:21:19;22.75;;;12.30;;
52878;SDS011;38747;53.140;6.498;2022-11-18T01:23:45;25.45;;;13.57;;
52878;SDS011;38747;53.140;6.498;2022-11-18T01:26:12;22.67;;;12.73;;
52878;SDS011;38747;53.140;6.498;2022-11-18T01:28:39;23.88;;;13.07;;
52878;SDS011;38747;53.140;6.498;2022-11-18T01:31:10;24.35;;;14.00;;
52878;SDS011;38747;53.140;6.498;2022-11-18T01:33:40;24.65;;;13.25;;
52878;SDS011;38747;53.140;6.498;2022-11-18T01:36:16;25.42;;;12.85;;
52878;SDS011;38747;53.140;6.498;2022-11-18T01:38:48;22.10;;;13.00;;
52878;SDS011;38747;53.140;6.498;2022-11-18T01:41:14;24.35;;;13.25;;
52878;SDS011;38747;53.140;6.498;2022-11-18T01:43:46;26.58;;;13.73;;
52878;SDS011;38747;53.140;6.498;2022-11-18T01:46:14;23.50;;;13.43;;
52878;SDS011;38747;53.140;6.498;2022-11-18T01:48:40;23.57;;;13.37;;
52878;SDS011;38747;53.140;6.498;2022-11-18T01:51:12;22.73;;;12.00;;
52878;SDS011;38747;53.140;6.498;2022-11-18T01:53:42;25.88;;;12.95;;
52878;SDS011;38747;53.140;6.498;2022-11-18T01:56:53;22.60;;;12.38;;
52878;SDS011;38747;53.140;6.498;2022-11-18T01:59:21;20.88;;;12.32;;
52878;SDS011;38747;53.140;6.498;2022-11-18T02:01:49;23.23;;;12.27;;
52878;SDS011;38747;53.140;6.498;2022-11-18T02:04:15;24.20;;;12.23;;
52878;SDS011;38747;53.140;6.498;2022-11-18T02:06:42;24.40;;;12.38;;
52878;SDS011;38747;53.140;6.498;2022-11-18T02:09:10;21.80;;;11.80;;
52878;SDS011;38747;53.140;6.498;2022-11-18T02:11:37;22.90;;;12.02;;
52878;SDS011;38747;53.140;6.498;2022-11-18T02:14:15;25.08;;;13.00;;
52878;SDS011;38747;53.140;6.498;2022-11-18T02:16:54;21.38;;;12.35;;
52878;SDS011;38747;53.140;6.498;2022-11-18T02:19:31;20.58;;;11.77;;
52878;SDS011;38747;53.140;6.498;2022-11-18T02:30:49;23.70;;;12.35;;
52878;SDS011;38747;53.140;6.498;2022-11-18T02:33:48;20.00;;;11.90;;
52878;SDS011;38747;53.140;6.498;2022-11-18T02:36:24;23.70;;;12.97;;
52878;SDS011;38747;53.140;6.498;2022-11-18T02:38:56;23.75;;;12.50;;
52878;SDS011;38747;53.140;6.498;2022-11-18T02:41:28;24.50;;;11.82;;
52878;SDS011;38747;53.140;6.498;2022-11-18T02:44:01;22.17;;;11.80;;
52878;SDS011;38747;53.140;6.498;2022-11-18T02:46:49;24.20;;;11.80;;
52878;SDS011;38747;53.140;6.498;2022-11-18T02:50:05;23.17;;;12.00;;
52878;SDS011;38747;53.140;6.498;2022-11-18T02:52:06;21.38;;;11.23;;
52878;SDS011;38747;53.140;6.498;2022-11-18T02:54:34;21.92;;;11.15;;
52878;SDS011;38747;53.140;6.498;2022-11-18T02:57:03;23.85;;;11.27;;
52878;SDS011;38747;53.140;6.498;2022-11-18T02:59:29;25.75;;;11.38;;
52878;SDS011;38747;53.140;6.498;2022-11-18T03:01:55;21.23;;;11.10;;
52878;SDS011;38747;53.140;6.498;2022-11-18T03:04:21;22.85;;;11.48;;
52878;SDS011;38747;53.140;6.498;2022-11-18T03:06:53;22.40;;;11.40;;
52878;SDS011;38747;53.140;6.498;2022-11-18T03:09:28;22.15;;;11.68;;
52878;SDS011;38747;53.140;6.498;2022-11-18T03:15:49;22.83;;;10.65;;
52878;SDS011;38747;53.140;6.498;2022-11-18T03:17:53;22.73;;;11.48;;
52878;SDS011;38747;53.140;6.498;2022-11-18T03:20:24;23.17;;;11.33;;
52878;SDS011;38747;53.140;6.498;2022-11-18T03:25:56;23.17;;;11.73;;
52878;SDS011;38747;53.140;6.498;2022-11-18T03:28:31;21.15;;;11.00;;
52878;SDS011;38747;53.140;6.498;2022-11-18T03:31:18;24.10;;;11.48;;
52878;SDS011;38747;53.140;6.498;2022-11-18T03:34:04;20.57;;;10.83;;
52878;SDS011;38747;53.140;6.498;2022-11-18T03:36:36;23.50;;;11.60;;
52878;SDS011;38747;53.140;6.498;2022-11-18T03:39:05;22.50;;;11.43;;
52878;SDS011;38747;53.140;6.498;2022-11-18T03:41:36;23.02;;;11.30;;
52878;SDS011;38747;53.140;6.498;2022-11-18T03:44:08;21.42;;;11.77;;
52878;SDS011;38747;53.140;6.498;2022-11-18T03:46:38;20.87;;;11.23;;
52878;SDS011;38747;53.140;6.498;2022-11-18T03:49:09;20.60;;;10.93;;
52878;SDS011;38747;53.140;6.498;2022-11-18T03:51:41;21.08;;;11.25;;
52878;SDS011;38747;53.140;6.498;2022-11-18T03:54:12;20.50;;;10.77;;
52878;SDS011;38747;53.140;6.498;2022-11-18T03:56:54;23.63;;;11.13;;
52878;SDS011;38747;53.140;6.498;2022-11-18T04:01:58;20.27;;;10.35;;
52878;SDS011;38747;53.140;6.498;2022-11-18T04:04:40;20.98;;;10.68;;
52878;SDS011;38747;53.140;6.498;2022-11-18T04:09:53;22.52;;;11.77;;
52878;SDS011;38747;53.140;6.498;2022-11-18T04:12:46;20.57;;;10.53;;
52878;SDS011;38747;53.140;6.498;2022-11-18T04:15:32;20.05;;;10.68;;
52878;SDS011;38747;53.140;6.498;2022-11-18T04:18:01;20.98;;;10.57;;
52878;SDS011;38747;53.140;6.498;2022-11-18T04:20:27;19.25;;;10.40;;
52878;SDS011;38747;53.140;6.498;2022-11-18T04:22:52;20.57;;;10.43;;
52878;SDS011;38747;53.140;6.498;2022-11-18T04:25:18;19.77;;;10.25;;
52878;SDS011;38747;53.140;6.498;2022-11-18T04:27:44;20.50;;;10.53;;
52878;SDS011;38747;53.140;6.498;2022-11-18T04:30:09;20.07;;;9.67;;
52878;SDS011;38747;53.140;6.498;2022-11-18T04:32:36;20.33;;;10.48;;
52878;SDS011;38747;53.140;6.498;2022-11-18T04:35:01;19.97;;;10.37;;
52878;SDS011;38747;53.140;6.498;2022-11-18T04:37:27;18.50;;;10.20;;
52878;SDS011;38747;53.140;6.498;2022-11-18T04:39:53;19.13;;;10.15;;
52878;SDS011;38747;53.140;6.498;2022-11-18T04:42:18;17.73;;;9.40;;
52878;SDS011;38747;53.140;6.498;2022-11-18T04:44:44;19.08;;;10.20;;
52878;SDS011;38747;53.140;6.498;2022-11-18T04:47:10;21.27;;;10.57;;
52878;SDS011;38747;53.140;6.498;2022-11-18T04:49:35;19.40;;;10.10;;
52878;SDS011;38747;53.140;6.498;2022-11-18T04:52:01;18.17;;;9.90;;
52878;SDS011;38747;53.140;6.498;2022-11-18T04:54:27;17.33;;;9.65;;
52878;SDS011;38747;53.140;6.498;2022-11-18T04:56:53;19.00;;;9.70;;
52878;SDS011;38747;53.140;6.498;2022-11-18T04:59:21;17.63;;;9.57;;
52878;SDS011;38747;53.140;6.498;2022-11-18T05:01:48;17.77;;;9.50;;
52878;SDS011;38747;53.140;6.498;2022-11-18T05:04:14;18.98;;;9.82;;
52878;SDS011;38747;53.140;6.498;2022-11-18T05:06:42;17.77;;;9.43;;
52878;SDS011;38747;53.140;6.498;2022-11-18T05:09:07;18.55;;;9.48;;
52878;SDS011;38747;53.140;6.498;2022-11-18T05:11:33;19.92;;;9.98;;
52878;SDS011;38747;53.140;6.498;2022-11-18T05:14:17;16.63;;;8.70;;
52878;SDS011;38747;53.140;6.498;2022-11-18T05:16:43;17.88;;;9.07;;
52878;SDS011;38747;53.140;6.498;2022-11-18T05:19:09;17.83;;;9.13;;
52878;SDS011;38747;53.140;6.498;2022-11-18T05:21:35;18.05;;;9.00;;
52878;SDS011;38747;53.140;6.498;2022-11-18T05:24:01;18.10;;;9.32;;
52878;SDS011;38747;53.140;6.498;2022-11-18T05:26:28;17.92;;;9.07;;
52878;SDS011;38747;53.140;6.498;2022-11-18T05:28:53;16.70;;;9.10;;
52878;SDS011;38747;53.140;6.498;2022-11-18T05:31:19;20.17;;;9.43;;
52878;SDS011;38747;53.140;6.498;2022-11-18T05:33:45;18.50;;;9.50;;
52878;SDS011;38747;53.140;6.498;2022-11-18T05:36:14;19.85;;;9.10;;
52878;SDS011;38747;53.140;6.498;2022-11-18T05:38:42;17.90;;;8.67;;
52878;SDS011;38747;53.140;6.498;2022-11-18T05:41:08;21.13;;;9.68;;
52878;SDS011;38747;53.140;6.498;2022-11-18T05:43:34;20.65;;;10.05;;
52878;SDS011;38747;53.140;6.498;2022-11-18T05:46:00;22.98;;;10.10;;
52878;SDS011;38747;53.140;6.498;2022-11-18T05:48:27;21.23;;;10.17;;
52878;SDS011;38747;53.140;6.498;2022-11-18T05:50:53;21.63;;;10.00;;
52878;SDS011;38747;53.140;6.498;2022-11-18T05:53:20;20.38;;;9.60;;
52878;SDS011;38747;53.140;6.498;2022-11-18T05:55:56;21.67;;;10.13;;
52878;SDS011;38747;53.140;6.498;2022-11-18T05:58:28;20.20;;;9.93;;
52878;SDS011;38747;53.140;6.498;2022-11-18T06:00:54;21.95;;;10.27;;
52878;SDS011;38747;53.140;6.498;2022-11-18T06:03:25;20.97;;;9.70;;
52878;SDS011;38747;53.140;6.498;2022-11-18T06:05:53;20.80;;;9.48;;
52878;SDS011;38747;53.140;6.498;2022-11-18T06:08:20;22.05;;;10.50;;
52878;SDS011;38747;53.140;6.498;2022-11-18T06:10:49;20.92;;;9.35;;
52878;SDS011;38747;53.140;6.498;2022-11-18T06:13:20;20.42;;;9.70;;
52878;SDS011;38747;53.140;6.498;2022-11-18T06:15:49;22.83;;;10.53;;
52878;SDS011;38747;53.140;6.498;2022-11-18T06:18:25;24.27;;;10.25;;
52878;SDS011;38747;53.140;6.498;2022-11-18T06:20:55;21.92;;;10.20;;
52878;SDS011;38747;53.140;6.498;2022-11-18T06:23:24;22.60;;;9.93;;
52878;SDS011;38747;53.140;6.498;2022-11-18T06:25:55;22.13;;;10.13;;
52878;SDS011;38747;53.140;6.498;2022-11-18T06:28:20;18.38;;;9.73;;
52878;SDS011;38747;53.140;6.498;2022-11-18T06:30:47;20.70;;;10.20;;
52878;SDS011;38747;53.140;6.498;2022-11-18T06:33:12;24.13;;;9.87;;
52878;SDS011;38747;53.140;6.498;2022-11-18T06:35:38;24.57;;;10.83;;
52878;SDS011;38747;53.140;6.498;2022-11-18T06:38:06;24.95;;;10.18;;
52878;SDS011;38747;53.140;6.498;2022-11-18T06:40:31;22.75;;;10.88;;
52878;SDS011;38747;53.140;6.498;2022-11-18T06:42:57;21.60;;;9.47;;
52878;SDS011;38747;53.140;6.498;2022-11-18T06:45:41;21.92;;;9.85;;
52878;SDS011;38747;53.140;6.498;2022-11-18T06:48:26;22.45;;;10.13;;
52878;SDS011;38747;53.140;6.498;2022-11-18T06:50:52;22.00;;;10.10;;
52878;SDS011;38747;53.140;6.498;2022-11-18T06:53:18;22.30;;;10.17;;
52878;SDS011;38747;53.140;6.498;2022-11-18T06:55:43;23.75;;;10.18;;
52878;SDS011;38747;53.140;6.498;2022-11-18T06:58:09;21.53;;;9.80;;
52878;SDS011;38747;53.140;6.498;2022-11-18T07:00:34;24.40;;;10.43;;
52878;SDS011;38747;53.140;6.498;2022-11-18T07:03:00;24.03;;;10.87;;
52878;SDS011;38747;53.140;6.498;2022-11-18T07:05:26;25.27;;;10.50;;
52878;SDS011;38747;53.140;6.498;2022-11-18T07:07:52;25.50;;;11.13;;
52878;SDS011;38747;53.140;6.498;2022-11-18T07:10:17;24.48;;;10.60;;
52878;SDS011;38747;53.140;6.498;2022-11-18T07:12:43;23.17;;;10.20;;
52878;SDS011;38747;53.140;6.498;2022-11-18T07:15:09;26.75;;;10.63;;
52878;SDS011;38747;53.140;6.498;2022-11-18T07:17:35;23.67;;;10.40;;
52878;SDS011;38747;53.140;6.498;2022-11-18T07:20:00;24.27;;;10.90;;
52878;SDS011;38747;53.140;6.498;2022-11-18T07:22:26;23.20;;;10.17;;
52878;SDS011;38747;53.140;6.498;2022-11-18T07:24:51;21.50;;;10.30;;
52878;SDS011;38747;53.140;6.498;2022-11-18T07:27:17;21.40;;;9.90;;
52878;SDS011;38747;53.140;6.498;2022-11-18T07:29:42;21.10;;;9.53;;
52878;SDS011;38747;53.140;6.498;2022-11-18T07:32:08;21.17;;;10.40;;
52878;SDS011;38747;53.140;6.498;2022-11-18T07:34:33;23.93;;;9.93;;
52878;SDS011;38747;53.140;6.498;2022-11-18T07:36:59;23.67;;;10.50;;
52878;SDS011;38747;53.140;6.498;2022-11-18T07:39:25;25.50;;;10.25;;
52878;SDS011;38747;53.140;6.498;2022-11-18T07:41:50;22.07;;;10.13;;
52878;SDS011;38747;53.140;6.498;2022-11-18T07:44:16;22.95;;;9.85;;
52878;SDS011;38747;53.140;6.498;2022-11-18T07:46:41;21.23;;;9.20;;
52878;SDS011;38747;53.140;6.498;2022-11-18T07:49:07;21.33;;;9.33;;
52878;SDS011;38747;53.140;6.498;2022-11-18T07:51:35;22.38;;;9.32;;
52878;SDS011;38747;53.140;6.498;2022-11-18T07:54:06;21.65;;;9.80;;
52878;SDS011;38747;53.140;6.498;2022-11-18T07:56:33;24.30;;;9.52;;
52878;SDS011;38747;53.140;6.498;2022-11-18T07:58:59;25.42;;;10.05;;
52878;SDS011;38747;53.140;6.498;2022-11-18T08:01:25;21.20;;;9.40;;
52878;SDS011;38747;53.140;6.498;2022-11-18T08:03:55;23.13;;;9.45;;
52878;SDS011;38747;53.140;6.498;2022-11-18T08:06:21;20.73;;;9.40;;
52878;SDS011;38747;53.140;6.498;2022-11-18T08:08:47;21.63;;;10.00;;
52878;SDS011;38747;53.140;6.498;2022-11-18T08:11:14;21.30;;;9.57;;
52878;SDS011;38747;53.140;6.498;2022-11-18T08:13:41;21.88;;;9.50;;
52878;SDS011;38747;53.140;6.498;2022-11-18T08:16:11;22.10;;;8.73;;
52878;SDS011;38747;53.140;6.498;2022-11-18T08:18:39;19.73;;;8.95;;
52878;SDS011;38747;53.140;6.498;2022-11-18T08:21:04;20.85;;;9.30;;
52878;SDS011;38747;53.140;6.498;2022-11-18T08:23:30;18.40;;;8.57;;
52878;SDS011;38747;53.140;6.498;2022-11-18T08:26:13;17.67;;;8.63;;
52878;SDS011;38747;53.140;6.498;2022-11-18T08:28:42;18.65;;;8.30;;
52878;SDS011;38747;53.140;6.498;2022-11-18T08:31:16;18.33;;;8.43;;
52878;SDS011;38747;53.140;6.498;2022-11-18T08:33:43;18.17;;;9.10;;
52878;SDS011;38747;53.140;6.498;2022-11-18T08:36:16;18.77;;;8.98;;
52878;SDS011;38747;53.140;6.498;2022-11-18T08:38:44;18.35;;;8.00;;
52878;SDS011;38747;53.140;6.498;2022-11-18T08:41:15;19.58;;;8.65;;
52878;SDS011;38747;53.140;6.498;2022-11-18T08:43:44;16.33;;;8.13;;
52878;SDS011;38747;53.140;6.498;2022-11-18T08:46:09;17.67;;;7.73;;
52878;SDS011;38747;53.140;6.498;2022-11-18T08:48:35;17.90;;;8.67;;
52878;SDS011;38747;53.140;6.498;2022-11-18T08:51:01;18.45;;;8.00;;
52878;SDS011;38747;53.140;6.498;2022-11-18T08:53:26;17.80;;;8.30;;
52878;SDS011;38747;53.140;6.498;2022-11-18T08:55:58;16.08;;;8.10;;
52878;SDS011;38747;53.140;6.498;2022-11-18T08:58:25;15.98;;;7.85;;
52878;SDS011;38747;53.140;6.498;2022-11-18T09:00:51;20.97;;;8.60;;
52878;SDS011;38747;53.140;6.498;2022-11-18T09:03:17;15.35;;;7.70;;
52878;SDS011;38747;53.140;6.498;2022-11-18T09:05:43;17.20;;;7.67;;
52878;SDS011;38747;53.140;6.498;2022-11-18T09:08:08;16.67;;;8.10;;
52878;SDS011;38747;53.140;6.498;2022-11-18T09:10:35;19.23;;;7.43;;
52878;SDS011;38747;53.140;6.498;2022-11-18T09:13:01;14.70;;;7.18;;
52878;SDS011;38747;53.140;6.498;2022-11-18T09:15:27;17.85;;;7.68;;
52878;SDS011;38747;53.140;6.498;2022-11-18T09:17:53;21.52;;;7.85;;
52878;SDS011;38747;53.140;6.498;2022-11-18T09:20:21;14.93;;;6.93;;
52878;SDS011;38747;53.140;6.498;2022-11-18T09:22:46;15.43;;;7.00;;
52878;SDS011;38747;53.140;6.498;2022-11-18T09:25:12;15.23;;;6.80;;
52878;SDS011;38747;53.140;6.498;2022-11-18T09:27:38;14.30;;;6.80;;
52878;SDS011;38747;53.140;6.498;2022-11-18T09:30:04;15.82;;;6.32;;
52878;SDS011;38747;53.140;6.498;2022-11-18T09:32:31;14.13;;;6.47;;
52878;SDS011;38747;53.140;6.498;2022-11-18T09:34:57;13.63;;;6.27;;
52878;SDS011;38747;53.140;6.498;2022-11-18T09:37:23;14.20;;;6.28;;
52878;SDS011;38747;53.140;6.498;2022-11-18T09:39:48;13.55;;;6.45;;
52878;SDS011;38747;53.140;6.498;2022-11-18T09:47:32;13.63;;;5.97;;
52878;SDS011;38747;53.140;6.498;2022-11-18T09:49:59;16.83;;;6.60;;
52878;SDS011;38747;53.140;6.498;2022-11-18T09:52:43;13.75;;;6.65;;
52878;SDS011;38747;53.140;6.498;2022-11-18T09:55:27;13.83;;;6.30;;
52878;SDS011;38747;53.140;6.498;2022-11-18T09:57:54;14.27;;;6.93;;
52878;SDS011;38747;53.140;6.498;2022-11-18T10:00:23;17.85;;;6.97;;
52878;SDS011;38747;53.140;6.498;2022-11-18T10:03:10;15.10;;;6.72;;
52878;SDS011;38747;53.140;6.498;2022-11-18T10:05:50;14.93;;;6.18;;
52878;SDS011;38747;53.140;6.498;2022-11-18T10:12:08;14.18;;;6.10;;
52878;SDS011;38747;53.140;6.498;2022-11-18T10:14:23;14.98;;;6.95;;
52878;SDS011;38747;53.140;6.498;2022-11-18T10:17:21;13.65;;;6.70;;
52878;SDS011;38747;53.140;6.498;2022-11-18T10:20:04;16.90;;;7.40;;
52878;SDS011;38747;53.140;6.498;2022-11-18T10:22:49;16.07;;;6.53;;
52878;SDS011;38747;53.140;6.498;2022-11-18T10:25:20;18.20;;;6.85;;
52878;SDS011;38747;53.140;6.498;2022-11-18T10:27:46;15.30;;;6.95;;
52878;SDS011;38747;53.140;6.498;2022-11-18T10:30:21;13.13;;;6.77;;
52878;SDS011;38747;53.140;6.498;2022-11-18T10:35:24;15.25;;;7.10;;
52878;SDS011;38747;53.140;6.498;2022-11-18T10:40:27;16.88;;;8.18;;
52878;SDS011;38747;53.140;6.498;2022-11-18T10:42:55;20.33;;;8.17;;
52878;SDS011;38747;53.140;6.498;2022-11-18T10:50:43;18.97;;;8.00;;
52878;SDS011;38747;53.140;6.498;2022-11-18T10:53:30;17.83;;;7.85;;
52878;SDS011;38747;53.140;6.498;2022-11-18T10:56:01;17.50;;;7.60;;
52878;SDS011;38747;53.140;6.498;2022-11-18T10:58:40;18.55;;;7.80;;
52878;SDS011;38747;53.140;6.498;2022-11-18T11:06:28;14.95;;;6.80;;
52878;SDS011;38747;53.140;6.498;2022-11-18T11:08:57;17.45;;;7.20;;
52878;SDS011;38747;53.140;6.498;2022-11-18T11:11:25;15.43;;;7.63;;
52878;SDS011;38747;53.140;6.498;2022-11-18T11:17:18;16.47;;;8.13;;
52878;SDS011;38747;53.140;6.498;2022-11-18T11:22:43;21.25;;;9.55;;
52878;SDS011;38747;53.140;6.498;2022-11-18T11:25:14;20.02;;;9.60;;
52878;SDS011;38747;53.140;6.498;2022-11-18T11:27:47;20.95;;;10.13;;
52878;SDS011;38747;53.140;6.498;2022-11-18T11:30:21;27.00;;;11.93;;
52878;SDS011;38747;53.140;6.498;2022-11-18T11:35:50;26.67;;;11.45;;
52878;SDS011;38747;53.140;6.498;2022-11-18T11:41:53;29.40;;;12.55;;
52878;SDS011;38747;53.140;6.498;2022-11-18T11:47:55;29.00;;;12.82;;
52878;SDS011;38747;53.140;6.498;2022-11-18T11:55:51;23.80;;;11.13;;
52878;SDS011;38747;53.140;6.498;2022-11-18T12:03:50;22.67;;;10.90;;
52878;SDS011;38747;53.140;6.498;2022-11-18T12:06:24;21.95;;;10.18;;
52878;SDS011;38747;53.140;6.498;2022-11-18T12:09:11;23.07;;;10.30;;
52878;SDS011;38747;53.140;6.498;2022-11-18T12:11:48;23.20;;;10.60;;
52878;SDS011;38747;53.140;6.498;2022-11-18T12:14:29;24.80;;;10.57;;
52878;SDS011;38747;53.140;6.498;2022-11-18T12:17:03;23.35;;;10.68;;
52878;SDS011;38747;53.140;6.498;2022-11-18T12:19:39;24.63;;;10.63;;
52878;SDS011;38747;53.140;6.498;2022-11-18T12:22:04;24.07;;;10.83;;
52878;SDS011;38747;53.140;6.498;2022-11-18T12:24:37;22.08;;;10.65;;
52878;SDS011;38747;53.140;6.498;2022-11-18T12:27:14;24.15;;;10.48;;
52878;SDS011;38747;53.140;6.498;2022-11-18T12:29:54;22.17;;;9.63;;
52878;SDS011;38747;53.140;6.498;2022-11-18T12:32:30;22.40;;;9.63;;
52878;SDS011;38747;53.140;6.498;2022-11-18T12:37:41;20.92;;;10.60;;
52878;SDS011;38747;53.140;6.498;2022-11-18T12:42:56;22.37;;;10.20;;
52878;SDS011;38747;53.140;6.498;2022-11-18T12:50:51;27.50;;;12.52;;
52878;SDS011;38747;53.140;6.498;2022-11-18T12:56:10;25.57;;;12.10;;
52878;SDS011;38747;53.140;6.498;2022-11-18T12:59:10;23.17;;;11.40;;
52878;SDS011;38747;53.140;6.498;2022-11-18T13:01:37;23.77;;;10.43;;
52878;SDS011;38747;53.140;6.498;2022-11-18T13:04:13;23.23;;;10.73;;
52878;SDS011;38747;53.140;6.498;2022-11-18T13:06:40;24.95;;;10.93;;
52878;SDS011;38747;53.140;6.498;2022-11-18T13:11:50;21.30;;;9.73;;
52878;SDS011;38747;53.140;6.498;2022-11-18T13:14:27;22.48;;;9.80;;
52878;SDS011;38747;53.140;6.498;2022-11-18T13:17:32;20.73;;;9.70;;
52878;SDS011;38747;53.140;6.498;2022-11-18T13:20:24;21.88;;;9.93;;
52878;SDS011;38747;53.140;6.498;2022-11-18T13:26:03;22.67;;;10.85;;
52878;SDS011;38747;53.140;6.498;2022-11-18T13:28:37;21.20;;;10.18;;
52878;SDS011;38747;53.140;6.498;2022-11-18T13:33:49;20.77;;;9.80;;
52878;SDS011;38747;53.140;6.498;2022-11-18T13:36:17;24.10;;;10.70;;
52878;SDS011;38747;53.140;6.498;2022-11-18T13:38:58;21.58;;;9.80;;
52878;SDS011;38747;53.140;6.498;2022-11-18T13:41:28;19.88;;;9.30;;
52878;SDS011;38747;53.140;6.498;2022-11-18T13:44:11;23.73;;;9.57;;
52878;SDS011;38747;53.140;6.498;2022-11-18T13:46:47;19.92;;;9.40;;
52878;SDS011;38747;53.140;6.498;2022-11-18T13:49:22;18.95;;;9.05;;
52878;SDS011;38747;53.140;6.498;2022-11-18T13:52:01;20.65;;;9.98;;
52878;SDS011;38747;53.140;6.498;2022-11-18T13:54:26;21.33;;;10.30;;
52878;SDS011;38747;53.140;6.498;2022-11-18T13:56:53;20.60;;;9.88;;
52878;SDS011;38747;53.140;6.498;2022-11-18T13:59:19;22.27;;;9.50;;
52878;SDS011;38747;53.140;6.498;2022-11-18T14:01:52;22.17;;;10.07;;
52878;SDS011;38747;53.140;6.498;2022-11-18T14:04:20;20.30;;;9.00;;
52878;SDS011;38747;53.140;6.498;2022-11-18T14:06:47;20.48;;;9.40;;
52878;SDS011;38747;53.140;6.498;2022-11-18T14:11:58;20.25;;;9.20;;
52878;SDS011;38747;53.140;6.498;2022-11-18T14:14:33;21.13;;;9.53;;
52878;SDS011;38747;53.140;6.498;2022-11-18T14:19:40;20.33;;;8.85;;
52878;SDS011;38747;53.140;6.498;2022-11-18T14:22:10;21.65;;;10.65;;
52878;SDS011;38747;53.140;6.498;2022-11-18T14:24:57;19.67;;;8.93;;
52878;SDS011;38747;53.140;6.498;2022-11-18T14:35:30;24.20;;;10.13;;
52878;SDS011;38747;53.140;6.498;2022-11-18T14:37:56;21.52;;;10.02;;
52878;SDS011;38747;53.140;6.498;2022-11-18T14:40:22;18.07;;;8.30;;
52878;SDS011;38747;53.140;6.498;2022-11-18T14:42:48;20.65;;;9.55;;
52878;SDS011;38747;53.140;6.498;2022-11-18T14:45:13;21.03;;;10.63;;
52878;SDS011;38747;53.140;6.498;2022-11-18T14:47:39;19.73;;;10.00;;
52878;SDS011;38747;53.140;6.498;2022-11-18T14:50:11;19.90;;;9.87;;
52878;SDS011;38747;53.140;6.498;2022-11-18T14:52:38;19.48;;;9.80;;
52878;SDS011;38747;53.140;6.498;2022-11-18T14:55:03;20.13;;;10.00;;
52878;SDS011;38747;53.140;6.498;2022-11-18T14:57:29;21.40;;;9.57;;
52878;SDS011;38747;53.140;6.498;2022-11-18T14:59:55;20.53;;;10.10;;
52878;SDS011;38747;53.140;6.498;2022-11-18T15:02:21;20.87;;;9.87;;
52878;SDS011;38747;53.140;6.498;2022-11-18T15:04:47;20.20;;;9.85;;
52878;SDS011;38747;53.140;6.498;2022-11-18T15:07:14;22.52;;;10.45;;
52878;SDS011;38747;53.140;6.498;2022-11-18T15:09:41;18.83;;;9.23;;
52878;SDS011;38747;53.140;6.498;2022-11-18T15:12:07;20.45;;;9.80;;
52878;SDS011;38747;53.140;6.498;2022-11-18T15:14:33;23.10;;;10.73;;
52878;SDS011;38747;53.140;6.498;2022-11-18T15:17:00;22.70;;;11.68;;
52878;SDS011;38747;53.140;6.498;2022-11-18T15:19:26;21.55;;;10.30;;
52878;SDS011;38747;53.140;6.498;2022-11-18T15:21:52;20.00;;;9.93;;
52878;SDS011;38747;53.140;6.498;2022-11-18T15:24:18;20.17;;;9.55;;
52878;SDS011;38747;53.140;6.498;2022-11-18T15:26:44;20.10;;;10.50;;
52878;SDS011;38747;53.140;6.498;2022-11-18T15:29:22;18.23;;;9.02;;
52878;SDS011;38747;53.140;6.498;2022-11-18T15:31:48;19.27;;;9.52;;
52878;SDS011;38747;53.140;6.498;2022-11-18T15:34:14;19.43;;;9.40;;
52878;SDS011;38747;53.140;6.498;2022-11-18T15:36:42;21.33;;;9.70;;
52878;SDS011;38747;53.140;6.498;2022-11-18T15:39:08;21.77;;;9.75;;
52878;SDS011;38747;53.140;6.498;2022-11-18T15:41:34;18.83;;;9.00;;
52878;SDS011;38747;53.140;6.498;2022-11-18T15:44:02;22.13;;;10.20;;
52878;SDS011;38747;53.140;6.498;2022-11-18T15:46:27;21.93;;;10.00;;
52878;SDS011;38747;53.140;6.498;2022-11-18T15:48:58;22.02;;;9.57;;
52878;SDS011;38747;53.140;6.498;2022-11-18T15:51:24;20.25;;;9.45;;
52878;SDS011;38747;53.140;6.498;2022-11-18T15:53:51;21.08;;;9.95;;
52878;SDS011;38747;53.140;6.498;2022-11-18T15:58:42;19.87;;;9.63;;
52878;SDS011;38747;53.140;6.498;2022-11-18T16:01:08;19.85;;;10.05;;
52878;SDS011;38747;53.140;6.498;2022-11-18T16:03:34;21.02;;;10.18;;
52878;SDS011;38747;53.140;6.498;2022-11-18T16:06:00;20.10;;;9.80;;
52878;SDS011;38747;53.140;6.498;2022-11-18T16:08:27;21.90;;;10.20;;
52878;SDS011;38747;53.140;6.498;2022-11-18T16:10:53;21.77;;;10.23;;
52878;SDS011;38747;53.140;6.498;2022-11-18T16:13:38;22.15;;;10.13;;
52878;SDS011;38747;53.140;6.498;2022-11-18T16:16:04;23.05;;;10.52;;
52878;SDS011;38747;53.140;6.498;2022-11-18T16:18:29;23.57;;;10.77;;
52878;SDS011;38747;53.140;6.498;2022-11-18T16:20:56;24.00;;;11.20;;
52878;SDS011;38747;53.140;6.498;2022-11-18T16:23:23;24.23;;;11.10;;
52878;SDS011;38747;53.140;6.498;2022-11-18T16:25:49;23.00;;;10.77;;
52878;SDS011;38747;53.140;6.498;2022-11-18T16:28:14;23.08;;;10.23;;
52878;SDS011;38747;53.140;6.498;2022-11-18T16:30:40;20.90;;;10.13;;
52878;SDS011;38747;53.140;6.498;2022-11-18T16:33:30;21.60;;;10.20;;
52878;SDS011;38747;53.140;6.498;2022-11-18T16:35:55;22.08;;;10.88;;